sensor_id;sensor_type;location;lat;lon;timestamp;P1;durP1;ratioP1;P2;durP2;ratioP2
10605;SDS011;5350;42.698;23.148;2023-06-14T00:01:55;6.22;;;4.70;;
10605;SDS011;5350;42.698;23.148;2023-06-14T00:04:21;5.40;;;4.90;;
10605;SDS011;5350;42.698;23.148;2023-06-14T00:06:50;5.75;;;4.32;;
10605;SDS011;5350;42.698;23.148;2023-06-14T00:09:17;5.25;;;4.80;;
10605;SDS011;5350;42.698;23.148;2023-06-14T00:11:44;5.72;;;4.90;;
10605;SDS011;5350;42.698;23.148;2023-06-14T00:14:11;5.63;;;5.13;;
10605;SDS011;5350;42.698;23.148;2023-06-14T00:16:39;7.97;;;5.35;;
10605;SDS011;5350;42.698;23.148;2023-06-14T00:19:07;5.18;;;4.68;;
10605;SDS011;5350;42.698;23.148;2023-06-14T00:21:35;7.28;;;5.13;;
10605;SDS011;5350;42.698;23.148;2023-06-14T00:24:03;5.07;;;4.68;;
10605;SDS011;5350;42.698;23.148;2023-06-14T00:26:30;5.43;;;5.03;;
10605;SDS011;5350;42.698;23.148;2023-06-14T00:28:57;6.13;;;4.75;;
10605;SDS011;5350;42.698;23.148;2023-06-14T00:31:23;7.30;;;5.10;;
10605;SDS011;5350;42.698;23.148;2023-06-14T00:33:52;5.95;;;5.30;;
10605;SDS011;5350;42.698;23.148;2023-06-14T00:36:19;7.47;;;5.18;;
10605;SDS011;5350;42.698;23.148;2023-06-14T00:38:45;7.97;;;5.00;;
10605;SDS011;5350;42.698;23.148;2023-06-14T00:41:12;5.65;;;5.03;;
10605;SDS011;5350;42.698;23.148;2023-06-14T00:43:39;5.70;;;5.20;;
10605;SDS011;5350;42.698;23.148;2023-06-14T00:46:05;5.55;;;4.85;;
10605;SDS011;5350;42.698;23.148;2023-06-14T00:48:32;9.30;;;4.95;;
10605;SDS011;5350;42.698;23.148;2023-06-14T00:51:01;6.38;;;4.30;;
10605;SDS011;5350;42.698;23.148;2023-06-14T00:53:29;5.53;;;4.78;;
10605;SDS011;5350;42.698;23.148;2023-06-14T00:55:58;5.28;;;4.82;;
10605;SDS011;5350;42.698;23.148;2023-06-14T00:58:26;5.80;;;4.78;;
10605;SDS011;5350;42.698;23.148;2023-06-14T01:00:53;5.25;;;4.65;;
10605;SDS011;5350;42.698;23.148;2023-06-14T01:03:21;5.97;;;4.78;;
10605;SDS011;5350;42.698;23.148;2023-06-14T01:05:48;4.95;;;4.45;;
10605;SDS011;5350;42.698;23.148;2023-06-14T01:08:20;6.25;;;4.35;;
10605;SDS011;5350;42.698;23.148;2023-06-14T01:10:52;6.78;;;4.63;;
10605;SDS011;5350;42.698;23.148;2023-06-14T01:13:27;4.85;;;4.43;;
10605;SDS011;5350;42.698;23.148;2023-06-14T01:15:58;5.63;;;4.30;;
10605;SDS011;5350;42.698;23.148;2023-06-14T01:18:26;4.95;;;4.45;;
10605;SDS011;5350;42.698;23.148;2023-06-14T01:20:54;4.70;;;4.35;;
10605;SDS011;5350;42.698;23.148;2023-06-14T01:23:23;6.50;;;4.85;;
10605;SDS011;5350;42.698;23.148;2023-06-14T01:25:50;5.32;;;4.38;;
10605;SDS011;5350;42.698;23.148;2023-06-14T01:28:18;4.20;;;3.88;;
10605;SDS011;5350;42.698;23.148;2023-06-14T01:30:47;4.50;;;4.10;;
10605;SDS011;5350;42.698;23.148;2023-06-14T01:33:19;5.28;;;4.28;;
10605;SDS011;5350;42.698;23.148;2023-06-14T01:35:49;4.47;;;4.13;;
10605;SDS011;5350;42.698;23.148;2023-06-14T01:38:17;5.70;;;4.00;;
10605;SDS011;5350;42.698;23.148;2023-06-14T01:40:49;7.18;;;4.50;;
10605;SDS011;5350;42.698;23.148;2023-06-14T01:43:18;5.18;;;4.72;;
10605;SDS011;5350;42.698;23.148;2023-06-14T01:45:47;5.57;;;4.25;;
10605;SDS011;5350;42.698;23.148;2023-06-14T01:48:14;5.50;;;4.30;;
10605;SDS011;5350;42.698;23.148;2023-06-14T01:50:41;5.88;;;4.93;;
10605;SDS011;5350;42.698;23.148;2023-06-14T01:53:08;4.82;;;4.35;;
10605;SDS011;5350;42.698;23.148;2023-06-14T01:55:36;4.97;;;4.47;;
10605;SDS011;5350;42.698;23.148;2023-06-14T01:58:04;5.07;;;4.47;;
10605;SDS011;5350;42.698;23.148;2023-06-14T02:00:31;8.25;;;4.38;;
10605;SDS011;5350;42.698;23.148;2023-06-14T02:02:58;4.40;;;4.00;;
10605;SDS011;5350;42.698;23.148;2023-06-14T02:05:25;6.50;;;4.10;;
10605;SDS011;5350;42.698;23.148;2023-06-14T02:07:51;7.75;;;4.40;;
10605;SDS011;5350;42.698;23.148;2023-06-14T02:10:19;7.97;;;4.60;;
10605;SDS011;5350;42.698;23.148;2023-06-14T02:12:46;4.90;;;4.43;;
10605;SDS011;5350;42.698;23.148;2023-06-14T02:15:14;5.30;;;4.45;;
10605;SDS011;5350;42.698;23.148;2023-06-14T02:17:44;5.82;;;4.47;;
10605;SDS011;5350;42.698;23.148;2023-06-14T02:20:12;4.25;;;3.85;;
10605;SDS011;5350;42.698;23.148;2023-06-14T02:22:39;5.43;;;4.68;;
10605;SDS011;5350;42.698;23.148;2023-06-14T02:25:06;5.72;;;4.22;;
10605;SDS011;5350;42.698;23.148;2023-06-14T02:27:34;6.00;;;4.35;;
10605;SDS011;5350;42.698;23.148;2023-06-14T02:30:00;4.70;;;4.22;;
10605;SDS011;5350;42.698;23.148;2023-06-14T02:32:29;5.38;;;4.20;;
10605;SDS011;5350;42.698;23.148;2023-06-14T02:34:56;8.23;;;4.55;;
10605;SDS011;5350;42.698;23.148;2023-06-14T02:37:23;4.97;;;4.20;;
10605;SDS011;5350;42.698;23.148;2023-06-14T02:39:51;4.65;;;4.22;;
10605;SDS011;5350;42.698;23.148;2023-06-14T02:42:18;6.28;;;3.70;;
10605;SDS011;5350;42.698;23.148;2023-06-14T02:44:45;4.30;;;3.90;;
10605;SDS011;5350;42.698;23.148;2023-06-14T02:47:16;6.22;;;3.75;;
10605;SDS011;5350;42.698;23.148;2023-06-14T02:49:44;3.80;;;3.50;;
10605;SDS011;5350;42.698;23.148;2023-06-14T02:52:11;8.80;;;3.70;;
10605;SDS011;5350;42.698;23.148;2023-06-14T02:54:38;4.00;;;3.55;;
10605;SDS011;5350;42.698;23.148;2023-06-14T02:57:05;4.15;;;3.85;;
10605;SDS011;5350;42.698;23.148;2023-06-14T02:59:32;4.22;;;3.40;;
10605;SDS011;5350;42.698;23.148;2023-06-14T03:02:03;4.00;;;3.67;;
10605;SDS011;5350;42.698;23.148;2023-06-14T03:04:30;4.07;;;3.58;;
10605;SDS011;5350;42.698;23.148;2023-06-14T03:07:01;4.00;;;3.70;;
10605;SDS011;5350;42.698;23.148;2023-06-14T03:09:28;4.35;;;4.05;;
10605;SDS011;5350;42.698;23.148;2023-06-14T03:11:54;3.72;;;3.42;;
10605;SDS011;5350;42.698;23.148;2023-06-14T03:14:21;4.40;;;3.75;;
10605;SDS011;5350;42.698;23.148;2023-06-14T03:16:48;4.57;;;3.70;;
10605;SDS011;5350;42.698;23.148;2023-06-14T03:19:15;8.13;;;4.13;;
10605;SDS011;5350;42.698;23.148;2023-06-14T03:21:42;4.72;;;3.95;;
10605;SDS011;5350;42.698;23.148;2023-06-14T03:24:11;5.93;;;3.67;;
10605;SDS011;5350;42.698;23.148;2023-06-14T03:26:37;4.38;;;4.07;;
10605;SDS011;5350;42.698;23.148;2023-06-14T03:29:04;5.85;;;3.90;;
10605;SDS011;5350;42.698;23.148;2023-06-14T03:31:31;5.72;;;4.20;;
10605;SDS011;5350;42.698;23.148;2023-06-14T03:33:58;4.72;;;3.72;;
10605;SDS011;5350;42.698;23.148;2023-06-14T03:36:25;8.75;;;3.83;;
10605;SDS011;5350;42.698;23.148;2023-06-14T03:38:52;8.05;;;3.70;;
10605;SDS011;5350;42.698;23.148;2023-06-14T03:41:20;7.72;;;3.80;;
10605;SDS011;5350;42.698;23.148;2023-06-14T03:43:47;4.57;;;4.18;;
10605;SDS011;5350;42.698;23.148;2023-06-14T03:46:14;4.40;;;4.00;;
10605;SDS011;5350;42.698;23.148;2023-06-14T03:48:41;3.75;;;3.45;;
10605;SDS011;5350;42.698;23.148;2023-06-14T03:51:07;3.78;;;3.47;;
10605;SDS011;5350;42.698;23.148;2023-06-14T03:53:35;6.50;;;3.92;;
10605;SDS011;5350;42.698;23.148;2023-06-14T03:56:01;4.57;;;4.18;;
10605;SDS011;5350;42.698;23.148;2023-06-14T03:58:30;4.30;;;3.90;;
10605;SDS011;5350;42.698;23.148;2023-06-14T04:00:57;4.60;;;3.95;;
10605;SDS011;5350;42.698;23.148;2023-06-14T04:03:24;4.28;;;3.88;;
10605;SDS011;5350;42.698;23.148;2023-06-14T04:05:53;4.25;;;3.88;;
10605;SDS011;5350;42.698;23.148;2023-06-14T04:08:21;7.70;;;3.88;;
10605;SDS011;5350;42.698;23.148;2023-06-14T04:10:49;4.40;;;3.83;;
10605;SDS011;5350;42.698;23.148;2023-06-14T04:13:16;5.80;;;3.88;;
10605;SDS011;5350;42.698;23.148;2023-06-14T04:15:44;4.63;;;4.22;;
10605;SDS011;5350;42.698;23.148;2023-06-14T04:18:13;3.92;;;3.63;;
10605;SDS011;5350;42.698;23.148;2023-06-14T04:20:39;4.88;;;4.47;;
10605;SDS011;5350;42.698;23.148;2023-06-14T04:23:12;4.63;;;4.07;;
10605;SDS011;5350;42.698;23.148;2023-06-14T04:25:39;6.47;;;3.70;;
10605;SDS011;5350;42.698;23.148;2023-06-14T04:28:10;3.92;;;3.60;;
10605;SDS011;5350;42.698;23.148;2023-06-14T04:30:37;5.05;;;3.60;;
10605;SDS011;5350;42.698;23.148;2023-06-14T04:33:07;3.88;;;3.10;;
10605;SDS011;5350;42.698;23.148;2023-06-14T04:35:35;3.20;;;3.00;;
10605;SDS011;5350;42.698;23.148;2023-06-14T04:38:02;4.13;;;3.30;;
10605;SDS011;5350;42.698;23.148;2023-06-14T04:40:30;4.07;;;3.60;;
10605;SDS011;5350;42.698;23.148;2023-06-14T04:42:58;3.60;;;3.40;;
10605;SDS011;5350;42.698;23.148;2023-06-14T04:45:26;3.28;;;3.08;;
10605;SDS011;5350;42.698;23.148;2023-06-14T04:47:58;6.05;;;3.97;;
10605;SDS011;5350;42.698;23.148;2023-06-14T04:50:26;3.47;;;3.28;;
10605;SDS011;5350;42.698;23.148;2023-06-14T04:52:54;5.13;;;3.42;;
10605;SDS011;5350;42.698;23.148;2023-06-14T04:55:22;3.67;;;3.40;;
10605;SDS011;5350;42.698;23.148;2023-06-14T04:57:49;3.72;;;3.30;;
10605;SDS011;5350;42.698;23.148;2023-06-14T05:00:18;4.65;;;3.30;;
10605;SDS011;5350;42.698;23.148;2023-06-14T05:02:45;3.42;;;3.22;;
10605;SDS011;5350;42.698;23.148;2023-06-14T05:05:14;3.05;;;2.85;;
10605;SDS011;5350;42.698;23.148;2023-06-14T05:07:42;3.70;;;3.40;;
10605;SDS011;5350;42.698;23.148;2023-06-14T05:10:09;3.90;;;3.60;;
10605;SDS011;5350;42.698;23.148;2023-06-14T05:12:36;4.53;;;4.10;;
10605;SDS011;5350;42.698;23.148;2023-06-14T05:15:03;5.35;;;4.63;;
10605;SDS011;5350;42.698;23.148;2023-06-14T05:17:30;5.00;;;4.00;;
10605;SDS011;5350;42.698;23.148;2023-06-14T05:19:57;6.38;;;5.70;;
10605;SDS011;5350;42.698;23.148;2023-06-14T05:22:24;4.00;;;3.70;;
10605;SDS011;5350;42.698;23.148;2023-06-14T05:24:52;4.35;;;3.53;;
10605;SDS011;5350;42.698;23.148;2023-06-14T05:27:19;5.13;;;4.60;;
10605;SDS011;5350;42.698;23.148;2023-06-14T05:29:46;4.60;;;3.80;;
10605;SDS011;5350;42.698;23.148;2023-06-14T05:32:13;4.40;;;4.10;;
10605;SDS011;5350;42.698;23.148;2023-06-14T05:34:40;5.38;;;4.70;;
10605;SDS011;5350;42.698;23.148;2023-06-14T05:37:07;6.07;;;4.80;;
10605;SDS011;5350;42.698;23.148;2023-06-14T05:39:33;6.82;;;4.72;;
10605;SDS011;5350;42.698;23.148;2023-06-14T05:42:01;7.07;;;5.10;;
10605;SDS011;5350;42.698;23.148;2023-06-14T05:44:28;5.65;;;4.97;;
10605;SDS011;5350;42.698;23.148;2023-06-14T05:46:55;6.40;;;4.57;;
10605;SDS011;5350;42.698;23.148;2023-06-14T05:49:21;4.50;;;4.15;;
10605;SDS011;5350;42.698;23.148;2023-06-14T05:51:48;5.00;;;4.07;;
10605;SDS011;5350;42.698;23.148;2023-06-14T05:54:15;5.78;;;4.90;;
10605;SDS011;5350;42.698;23.148;2023-06-14T05:56:42;5.28;;;4.78;;
10605;SDS011;5350;42.698;23.148;2023-06-14T05:59:10;4.95;;;4.55;;
10605;SDS011;5350;42.698;23.148;2023-06-14T06:01:36;6.40;;;5.07;;
10605;SDS011;5350;42.698;23.148;2023-06-14T06:04:05;6.70;;;5.03;;
10605;SDS011;5350;42.698;23.148;2023-06-14T06:06:31;8.02;;;4.82;;
10605;SDS011;5350;42.698;23.148;2023-06-14T06:08:58;4.53;;;4.22;;
10605;SDS011;5350;42.698;23.148;2023-06-14T06:11:25;4.75;;;4.32;;
10605;SDS011;5350;42.698;23.148;2023-06-14T06:13:52;4.60;;;4.20;;
10605;SDS011;5350;42.698;23.148;2023-06-14T06:16:20;5.60;;;4.28;;
10605;SDS011;5350;42.698;23.148;2023-06-14T06:18:46;4.30;;;3.90;;
10605;SDS011;5350;42.698;23.148;2023-06-14T06:21:13;4.68;;;4.28;;
10605;SDS011;5350;42.698;23.148;2023-06-14T06:23:41;4.85;;;4.40;;
10605;SDS011;5350;42.698;23.148;2023-06-14T06:26:07;4.78;;;4.30;;
10605;SDS011;5350;42.698;23.148;2023-06-14T06:28:34;5.65;;;4.78;;
10605;SDS011;5350;42.698;23.148;2023-06-14T06:31:01;5.45;;;4.95;;
10605;SDS011;5350;42.698;23.148;2023-06-14T06:33:29;5.20;;;4.80;;
10605;SDS011;5350;42.698;23.148;2023-06-14T06:35:56;5.45;;;5.03;;
10605;SDS011;5350;42.698;23.148;2023-06-14T06:38:22;5.78;;;5.20;;
10605;SDS011;5350;42.698;23.148;2023-06-14T06:40:49;6.30;;;5.28;;
10605;SDS011;5350;42.698;23.148;2023-06-14T06:43:16;6.13;;;5.53;;
10605;SDS011;5350;42.698;23.148;2023-06-14T06:45:43;5.90;;;5.40;;
10605;SDS011;5350;42.698;23.148;2023-06-14T06:48:09;5.90;;;5.40;;
10605;SDS011;5350;42.698;23.148;2023-06-14T06:50:37;5.60;;;5.03;;
10605;SDS011;5350;42.698;23.148;2023-06-14T06:53:04;6.00;;;5.50;;
10605;SDS011;5350;42.698;23.148;2023-06-14T06:55:31;6.78;;;5.68;;
10605;SDS011;5350;42.698;23.148;2023-06-14T06:57:58;7.13;;;4.97;;
10605;SDS011;5350;42.698;23.148;2023-06-14T07:00:25;7.20;;;5.93;;
10605;SDS011;5350;42.698;23.148;2023-06-14T07:02:52;5.95;;;5.45;;
10605;SDS011;5350;42.698;23.148;2023-06-14T07:05:20;5.63;;;5.13;;
10605;SDS011;5350;42.698;23.148;2023-06-14T07:07:48;5.43;;;4.90;;
10605;SDS011;5350;42.698;23.148;2023-06-14T07:10:15;5.47;;;4.97;;
10605;SDS011;5350;42.698;23.148;2023-06-14T07:12:41;5.47;;;5.07;;
10605;SDS011;5350;42.698;23.148;2023-06-14T07:15:08;5.38;;;4.97;;
10605;SDS011;5350;42.698;23.148;2023-06-14T07:17:36;5.53;;;5.03;;
10605;SDS011;5350;42.698;23.148;2023-06-14T07:20:02;5.88;;;5.47;;
10605;SDS011;5350;42.698;23.148;2023-06-14T07:22:33;6.28;;;5.78;;
10605;SDS011;5350;42.698;23.148;2023-06-14T07:25:01;6.18;;;5.78;;
10605;SDS011;5350;42.698;23.148;2023-06-14T07:27:28;5.78;;;5.03;;
10605;SDS011;5350;42.698;23.148;2023-06-14T07:29:55;6.15;;;5.55;;
10605;SDS011;5350;42.698;23.148;2023-06-14T07:32:21;7.20;;;6.57;;
10605;SDS011;5350;42.698;23.148;2023-06-14T07:34:48;6.30;;;5.70;;
10605;SDS011;5350;42.698;23.148;2023-06-14T07:37:15;7.03;;;5.82;;
10605;SDS011;5350;42.698;23.148;2023-06-14T07:39:41;6.35;;;5.90;;
10605;SDS011;5350;42.698;23.148;2023-06-14T07:42:09;5.85;;;5.32;;
10605;SDS011;5350;42.698;23.148;2023-06-14T07:44:36;8.13;;;5.53;;
10605;SDS011;5350;42.698;23.148;2023-06-14T07:47:03;5.63;;;5.13;;
10605;SDS011;5350;42.698;23.148;2023-06-14T07:49:30;6.20;;;5.38;;
10605;SDS011;5350;42.698;23.148;2023-06-14T07:51:57;6.40;;;5.90;;
10605;SDS011;5350;42.698;23.148;2023-06-14T07:54:23;6.38;;;5.88;;
10605;SDS011;5350;42.698;23.148;2023-06-14T07:56:51;9.45;;;6.05;;
10605;SDS011;5350;42.698;23.148;2023-06-14T07:59:20;6.20;;;5.75;;
10605;SDS011;5350;42.698;23.148;2023-06-14T08:01:46;6.90;;;6.18;;
10605;SDS011;5350;42.698;23.148;2023-06-14T08:04:13;9.98;;;6.63;;
10605;SDS011;5350;42.698;23.148;2023-06-14T08:06:40;8.82;;;7.32;;
10605;SDS011;5350;42.698;23.148;2023-06-14T08:09:09;7.07;;;6.05;;
10605;SDS011;5350;42.698;23.148;2023-06-14T08:11:36;7.75;;;7.03;;
10605;SDS011;5350;42.698;23.148;2023-06-14T08:14:03;8.73;;;6.85;;
10605;SDS011;5350;42.698;23.148;2023-06-14T08:16:31;7.47;;;6.75;;
10605;SDS011;5350;42.698;23.148;2023-06-14T08:18:58;7.75;;;6.70;;
10605;SDS011;5350;42.698;23.148;2023-06-14T08:21:24;7.68;;;6.97;;
10605;SDS011;5350;42.698;23.148;2023-06-14T08:23:52;8.70;;;7.90;;
10605;SDS011;5350;42.698;23.148;2023-06-14T08:26:19;8.15;;;6.82;;
10605;SDS011;5350;42.698;23.148;2023-06-14T08:28:46;8.80;;;7.35;;
10605;SDS011;5350;42.698;23.148;2023-06-14T08:31:13;8.15;;;7.13;;
10605;SDS011;5350;42.698;23.148;2023-06-14T08:33:41;8.25;;;7.35;;
10605;SDS011;5350;42.698;23.148;2023-06-14T08:36:08;11.00;;;7.55;;
10605;SDS011;5350;42.698;23.148;2023-06-14T08:38:35;9.85;;;7.53;;
10605;SDS011;5350;42.698;23.148;2023-06-14T08:41:02;7.93;;;7.22;;
10605;SDS011;5350;42.698;23.148;2023-06-14T08:43:31;8.40;;;7.60;;
10605;SDS011;5350;42.698;23.148;2023-06-14T08:46:00;7.40;;;6.70;;
10605;SDS011;5350;42.698;23.148;2023-06-14T08:48:28;11.80;;;7.28;;
10605;SDS011;5350;42.698;23.148;2023-06-14T08:50:58;10.32;;;7.35;;
10605;SDS011;5350;42.698;23.148;2023-06-14T08:53:28;8.00;;;7.20;;
10605;SDS011;5350;42.698;23.148;2023-06-14T08:55:58;8.60;;;7.50;;
10605;SDS011;5350;42.698;23.148;2023-06-14T08:58:26;8.45;;;7.75;;
10605;SDS011;5350;42.698;23.148;2023-06-14T09:00:55;8.75;;;7.55;;
10605;SDS011;5350;42.698;23.148;2023-06-14T09:03:22;8.15;;;7.32;;
10605;SDS011;5350;42.698;23.148;2023-06-14T09:05:55;9.35;;;7.93;;
10605;SDS011;5350;42.698;23.148;2023-06-14T09:08:25;10.18;;;7.78;;
10605;SDS011;5350;42.698;23.148;2023-06-14T09:10:55;8.98;;;8.10;;
10605;SDS011;5350;42.698;23.148;2023-06-14T09:13:22;9.63;;;7.45;;
10605;SDS011;5350;42.698;23.148;2023-06-14T09:15:49;8.98;;;8.18;;
10605;SDS011;5350;42.698;23.148;2023-06-14T09:18:16;9.32;;;8.40;;
10605;SDS011;5350;42.698;23.148;2023-06-14T09:20:45;8.60;;;7.82;;
10605;SDS011;5350;42.698;23.148;2023-06-14T09:23:12;10.57;;;8.68;;
10605;SDS011;5350;42.698;23.148;2023-06-14T09:25:45;10.75;;;8.73;;
10605;SDS011;5350;42.698;23.148;2023-06-14T09:28:12;8.88;;;8.15;;
10605;SDS011;5350;42.698;23.148;2023-06-14T09:30:39;11.20;;;8.05;;
10605;SDS011;5350;42.698;23.148;2023-06-14T09:33:05;10.10;;;9.15;;
10605;SDS011;5350;42.698;23.148;2023-06-14T09:35:32;8.75;;;7.95;;
10605;SDS011;5350;42.698;23.148;2023-06-14T09:37:59;8.90;;;8.10;;
10605;SDS011;5350;42.698;23.148;2023-06-14T09:40:26;9.40;;;7.72;;
10605;SDS011;5350;42.698;23.148;2023-06-14T09:42:54;8.40;;;7.70;;
10605;SDS011;5350;42.698;23.148;2023-06-14T09:45:22;8.90;;;8.15;;
10605;SDS011;5350;42.698;23.148;2023-06-14T09:47:50;9.93;;;8.07;;
10605;SDS011;5350;42.698;23.148;2023-06-14T09:50:17;9.65;;;8.75;;
10605;SDS011;5350;42.698;23.148;2023-06-14T09:52:44;10.05;;;9.07;;
10605;SDS011;5350;42.698;23.148;2023-06-14T09:55:14;9.40;;;8.40;;
10605;SDS011;5350;42.698;23.148;2023-06-14T09:57:42;9.75;;;8.70;;
10605;SDS011;5350;42.698;23.148;2023-06-14T10:00:13;10.88;;;8.70;;
10605;SDS011;5350;42.698;23.148;2023-06-14T10:02:41;9.57;;;8.57;;
10605;SDS011;5350;42.698;23.148;2023-06-14T10:05:12;9.45;;;8.55;;
10605;SDS011;5350;42.698;23.148;2023-06-14T10:07:48;11.68;;;8.20;;
10605;SDS011;5350;42.698;23.148;2023-06-14T10:10:17;9.45;;;8.65;;
10605;SDS011;5350;42.698;23.148;2023-06-14T10:12:45;10.05;;;8.15;;
10605;SDS011;5350;42.698;23.148;2023-06-14T10:15:15;9.23;;;8.32;;
10605;SDS011;5350;42.698;23.148;2023-06-14T10:17:46;10.13;;;9.02;;
10605;SDS011;5350;42.698;23.148;2023-06-14T10:20:20;9.07;;;8.18;;
10605;SDS011;5350;42.698;23.148;2023-06-14T10:25:39;10.18;;;8.13;;
10605;SDS011;5350;42.698;23.148;2023-06-14T10:28:16;9.50;;;8.55;;
10605;SDS011;5350;42.698;23.148;2023-06-14T10:33:34;9.52;;;8.63;;
10605;SDS011;5350;42.698;23.148;2023-06-14T10:39:06;10.57;;;8.25;;
10605;SDS011;5350;42.698;23.148;2023-06-14T10:41:35;10.13;;;9.23;;
10605;SDS011;5350;42.698;23.148;2023-06-14T10:47:07;10.27;;;8.63;;
10605;SDS011;5350;42.698;23.148;2023-06-14T10:49:36;8.98;;;8.13;;
10605;SDS011;5350;42.698;23.148;2023-06-14T10:52:08;10.23;;;9.32;;
10605;SDS011;5350;42.698;23.148;2023-06-14T10:57:36;11.70;;;8.27;;
10605;SDS011;5350;42.698;23.148;2023-06-14T11:00:05;9.65;;;8.85;;
10605;SDS011;5350;42.698;23.148;2023-06-14T11:03:09;9.13;;;8.23;;
10605;SDS011;5350;42.698;23.148;2023-06-14T11:05:57;8.82;;;8.00;;
10605;SDS011;5350;42.698;23.148;2023-06-14T11:11:33;9.95;;;8.73;;
10605;SDS011;5350;42.698;23.148;2023-06-14T11:14:01;11.57;;;8.60;;
10605;SDS011;5350;42.698;23.148;2023-06-14T11:16:28;10.30;;;9.38;;
10605;SDS011;5350;42.698;23.148;2023-06-14T11:18:59;10.60;;;9.55;;
10605;SDS011;5350;42.698;23.148;2023-06-14T11:21:26;10.50;;;9.10;;
10605;SDS011;5350;42.698;23.148;2023-06-14T11:23:56;9.52;;;8.70;;
10605;SDS011;5350;42.698;23.148;2023-06-14T11:26:26;8.75;;;8.05;;
10605;SDS011;5350;42.698;23.148;2023-06-14T11:28:56;9.05;;;8.18;;
10605;SDS011;5350;42.698;23.148;2023-06-14T11:31:24;10.20;;;9.05;;
10605;SDS011;5350;42.698;23.148;2023-06-14T11:33:53;10.77;;;9.63;;
10605;SDS011;5350;42.698;23.148;2023-06-14T11:36:21;9.85;;;8.90;;
10605;SDS011;5350;42.698;23.148;2023-06-14T11:38:48;10.18;;;9.18;;
10605;SDS011;5350;42.698;23.148;2023-06-14T11:41:15;12.40;;;9.48;;
10605;SDS011;5350;42.698;23.148;2023-06-14T11:43:42;10.30;;;9.25;;
10605;SDS011;5350;42.698;23.148;2023-06-14T11:46:12;10.43;;;9.43;;
10605;SDS011;5350;42.698;23.148;2023-06-14T11:48:40;10.75;;;9.77;;
10605;SDS011;5350;42.698;23.148;2023-06-14T11:51:08;11.25;;;10.15;;
10605;SDS011;5350;42.698;23.148;2023-06-14T11:53:37;11.00;;;10.00;;
10605;SDS011;5350;42.698;23.148;2023-06-14T11:56:04;11.18;;;10.07;;
10605;SDS011;5350;42.698;23.148;2023-06-14T11:58:31;11.88;;;10.45;;
10605;SDS011;5350;42.698;23.148;2023-06-14T12:00:58;10.57;;;9.60;;
10605;SDS011;5350;42.698;23.148;2023-06-14T12:03:25;10.50;;;9.52;;
10605;SDS011;5350;42.698;23.148;2023-06-14T12:06:01;11.52;;;10.32;;
10605;SDS011;5350;42.698;23.148;2023-06-14T12:08:32;11.75;;;10.60;;
10605;SDS011;5350;42.698;23.148;2023-06-14T12:11:05;9.80;;;9.00;;
10605;SDS011;5350;42.698;23.148;2023-06-14T12:13:33;12.20;;;10.07;;
10605;SDS011;5350;42.698;23.148;2023-06-14T12:16:01;10.00;;;9.02;;
10605;SDS011;5350;42.698;23.148;2023-06-14T12:18:32;11.40;;;10.40;;
10605;SDS011;5350;42.698;23.148;2023-06-14T12:21:00;11.02;;;10.07;;
10605;SDS011;5350;42.698;23.148;2023-06-14T12:23:38;10.75;;;9.75;;
10605;SDS011;5350;42.698;23.148;2023-06-14T12:26:07;9.95;;;9.00;;
10605;SDS011;5350;42.698;23.148;2023-06-14T12:28:33;11.75;;;8.80;;
10605;SDS011;5350;42.698;23.148;2023-06-14T12:31:00;11.07;;;8.90;;
10605;SDS011;5350;42.698;23.148;2023-06-14T12:33:27;9.45;;;8.45;;
10605;SDS011;5350;42.698;23.148;2023-06-14T12:35:54;9.00;;;8.27;;
10605;SDS011;5350;42.698;23.148;2023-06-14T12:38:22;10.10;;;8.77;;
10605;SDS011;5350;42.698;23.148;2023-06-14T12:40:49;17.27;;;9.23;;
10605;SDS011;5350;42.698;23.148;2023-06-14T12:43:17;10.40;;;9.40;;
10605;SDS011;5350;42.698;23.148;2023-06-14T12:45:44;9.57;;;8.63;;
10605;SDS011;5350;42.698;23.148;2023-06-14T12:48:10;9.05;;;8.15;;
10605;SDS011;5350;42.698;23.148;2023-06-14T12:50:37;9.52;;;8.38;;
10605;SDS011;5350;42.698;23.148;2023-06-14T12:53:04;9.32;;;8.43;;
10605;SDS011;5350;42.698;23.148;2023-06-14T12:55:31;9.23;;;8.30;;
10605;SDS011;5350;42.698;23.148;2023-06-14T12:57:58;10.23;;;8.45;;
10605;SDS011;5350;42.698;23.148;2023-06-14T13:00:26;9.98;;;8.23;;
10605;SDS011;5350;42.698;23.148;2023-06-14T13:02:55;9.20;;;8.35;;
10605;SDS011;5350;42.698;23.148;2023-06-14T13:05:21;9.77;;;8.02;;
10605;SDS011;5350;42.698;23.148;2023-06-14T13:07:48;8.93;;;7.85;;
10605;SDS011;5350;42.698;23.148;2023-06-14T13:10:15;8.52;;;7.80;;
10605;SDS011;5350;42.698;23.148;2023-06-14T13:12:42;8.80;;;7.90;;
10605;SDS011;5350;42.698;23.148;2023-06-14T13:15:10;9.77;;;8.27;;
10605;SDS011;5350;42.698;23.148;2023-06-14T13:17:38;9.32;;;8.43;;
10605;SDS011;5350;42.698;23.148;2023-06-14T13:20:05;9.70;;;8.80;;
10605;SDS011;5350;42.698;23.148;2023-06-14T13:22:33;15.18;;;9.23;;
10605;SDS011;5350;42.698;23.148;2023-06-14T13:25:00;9.50;;;8.70;;
10605;SDS011;5350;42.698;23.148;2023-06-14T13:27:27;9.40;;;8.55;;
10605;SDS011;5350;42.698;23.148;2023-06-14T13:29:54;10.23;;;9.20;;
10605;SDS011;5350;42.698;23.148;2023-06-14T13:32:21;11.25;;;10.00;;
10605;SDS011;5350;42.698;23.148;2023-06-14T13:34:49;10.85;;;9.75;;
10605;SDS011;5350;42.698;23.148;2023-06-14T13:37:16;11.18;;;10.10;;
10605;SDS011;5350;42.698;23.148;2023-06-14T13:39:42;10.07;;;9.18;;
10605;SDS011;5350;42.698;23.148;2023-06-14T13:42:09;11.05;;;8.73;;
10605;SDS011;5350;42.698;23.148;2023-06-14T13:44:37;8.82;;;7.97;;
10605;SDS011;5350;42.698;23.148;2023-06-14T13:47:04;8.50;;;7.70;;
10605;SDS011;5350;42.698;23.148;2023-06-14T13:49:32;8.70;;;7.80;;
10605;SDS011;5350;42.698;23.148;2023-06-14T13:52:01;4.22;;;3.88;;
10605;SDS011;5350;42.698;23.148;2023-06-14T13:54:28;5.03;;;4.60;;
10605;SDS011;5350;42.698;23.148;2023-06-14T13:56:55;4.45;;;4.15;;
10605;SDS011;5350;42.698;23.148;2023-06-14T13:59:22;4.40;;;4.05;;
10605;SDS011;5350;42.698;23.148;2023-06-14T14:01:49;4.43;;;4.15;;
10605;SDS011;5350;42.698;23.148;2023-06-14T14:04:15;4.43;;;4.13;;
10605;SDS011;5350;42.698;23.148;2023-06-14T14:06:42;4.80;;;4.40;;
10605;SDS011;5350;42.698;23.148;2023-06-14T14:09:10;4.85;;;4.35;;
10605;SDS011;5350;42.698;23.148;2023-06-14T14:11:37;5.15;;;4.68;;
10605;SDS011;5350;42.698;23.148;2023-06-14T14:14:06;5.20;;;4.70;;
10605;SDS011;5350;42.698;23.148;2023-06-14T14:16:33;5.57;;;5.07;;
10605;SDS011;5350;42.698;23.148;2023-06-14T14:19:00;4.72;;;4.32;;
10605;SDS011;5350;42.698;23.148;2023-06-14T14:21:27;5.93;;;5.32;;
10605;SDS011;5350;42.698;23.148;2023-06-14T14:23:54;5.78;;;5.28;;
10605;SDS011;5350;42.698;23.148;2023-06-14T14:26:22;5.38;;;4.97;;
10605;SDS011;5350;42.698;23.148;2023-06-14T14:28:49;4.88;;;4.47;;
10605;SDS011;5350;42.698;23.148;2023-06-14T14:31:16;5.78;;;5.38;;
10605;SDS011;5350;42.698;23.148;2023-06-14T14:33:43;5.38;;;4.97;;
10605;SDS011;5350;42.698;23.148;2023-06-14T14:36:10;6.97;;;5.05;;
10605;SDS011;5350;42.698;23.148;2023-06-14T14:38:37;5.32;;;4.93;;
10605;SDS011;5350;42.698;23.148;2023-06-14T14:41:03;6.15;;;4.90;;
10605;SDS011;5350;42.698;23.148;2023-06-14T14:43:31;5.65;;;5.15;;
10605;SDS011;5350;42.698;23.148;2023-06-14T14:45:58;5.97;;;5.47;;
10605;SDS011;5350;42.698;23.148;2023-06-14T14:48:25;6.07;;;5.47;;
10605;SDS011;5350;42.698;23.148;2023-06-14T14:50:51;6.20;;;5.68;;
10605;SDS011;5350;42.698;23.148;2023-06-14T14:53:18;5.95;;;5.45;;
10605;SDS011;5350;42.698;23.148;2023-06-14T14:55:45;6.68;;;6.13;;
10605;SDS011;5350;42.698;23.148;2023-06-14T14:58:12;6.80;;;6.20;;
10605;SDS011;5350;42.698;23.148;2023-06-14T15:00:43;6.70;;;6.00;;
10605;SDS011;5350;42.698;23.148;2023-06-14T15:03:10;5.97;;;5.47;;
10605;SDS011;5350;42.698;23.148;2023-06-14T15:05:37;6.68;;;5.45;;
10605;SDS011;5350;42.698;23.148;2023-06-14T15:08:04;5.90;;;5.40;;